createdAt,value
2022-07-29T00:03:07.050Z,18.24
2022-07-29T00:23:06.925Z,18
2022-07-29T01:03:06.839Z,17.56
2022-07-29T01:23:06.861Z,17.29
2022-07-29T01:43:06.767Z,17.05
2022-07-29T02:03:06.736Z,16.82
2022-07-29T02:23:06.731Z,16.65
2022-07-29T02:43:06.642Z,16.42
2022-07-29T03:03:06.661Z,16.23
2022-07-29T03:23:06.557Z,16.14
2022-07-29T03:43:06.533Z,15.91
2022-07-29T04:03:08.492Z,15.79
2022-07-29T04:23:06.453Z,15.7
2022-07-29T04:43:06.395Z,15.88
2022-07-29T05:03:06.445Z,16.09
2022-07-29T05:23:06.325Z,16.28
2022-07-29T05:43:06.286Z,15.33
2022-07-29T06:03:06.260Z,14.2
2022-07-29T06:23:06.200Z,14.69
2022-07-29T07:03:06.121Z,14.52
2022-07-29T07:23:06.085Z,15.11
2022-07-29T07:43:06.057Z,15.77
2022-07-29T08:03:06.002Z,16.72
2022-07-29T08:23:05.970Z,17.88
2022-07-29T08:43:06.484Z,18.34
2022-07-29T09:23:05.848Z,18.09
2022-07-29T09:43:05.797Z,17.72
2022-07-29T10:03:05.785Z,17.62
2022-07-29T10:43:05.673Z,17.11
2022-07-29T11:03:08.439Z,17.08
2022-07-29T11:23:05.591Z,17.13
2022-07-29T12:03:05.574Z,17.77
2022-07-29T12:23:05.466Z,19.19
2022-07-29T12:43:05.433Z,19.19
2022-07-29T13:03:05.381Z,20.11
2022-07-29T13:23:05.360Z,20.88
2022-07-29T13:43:05.309Z,21.39
2022-07-29T14:03:05.266Z,22.47
2022-07-29T14:23:05.246Z,23.39
2022-07-29T14:43:05.182Z,23.82
2022-07-29T15:03:05.163Z,25.29
2022-07-29T15:23:05.111Z,25.11
2022-07-29T15:43:05.099Z,25.25
2022-07-29T16:03:05.013Z,25.12
2022-07-29T16:23:04.976Z,24.99
2022-07-29T16:43:04.953Z,25.31
2022-07-29T17:03:05.140Z,24.99
2022-07-29T17:23:05.105Z,24.02
2022-07-29T17:43:04.821Z,24.02
2022-07-29T18:03:04.820Z,23.75
2022-07-29T18:23:04.736Z,23.6
2022-07-29T18:43:04.679Z,22.88
2022-07-29T19:03:04.775Z,21.95
2022-07-29T19:23:04.593Z,20.69
2022-07-29T19:43:04.549Z,19.9
2022-07-29T20:03:04.573Z,18.92
2022-07-29T20:23:04.462Z,18.14
2022-07-29T20:43:04.430Z,17.52
2022-07-29T21:03:04.439Z,16.83
2022-07-29T21:23:04.341Z,16.42
2022-07-29T21:43:04.314Z,15.95
2022-07-29T22:03:04.268Z,15.53
2022-07-29T22:23:04.236Z,15.49
2022-07-29T22:43:04.202Z,15.1
2022-07-29T23:03:04.150Z,15.04
2022-07-29T23:23:04.109Z,15.04
2022-07-29T23:43:08.439Z,14.84
